sensor_id;sensor_type;location;lat;lon;timestamp;P1;durP1;ratioP1;P2;durP2;ratioP2
17496;SDS011;62150;43.582;1.456;2022-08-07T05:47:28;7.00;;;3.58;;
17496;SDS011;62150;43.582;1.456;2022-08-07T05:49:57;6.75;;;3.28;;
17496;SDS011;62150;43.582;1.456;2022-08-07T05:52:27;6.50;;;3.60;;
17496;SDS011;62150;43.582;1.456;2022-08-07T05:54:54;6.97;;;3.55;;
17496;SDS011;62150;43.582;1.456;2022-08-07T05:57:22;6.93;;;3.78;;
17496;SDS011;62150;43.582;1.456;2022-08-07T05:59:51;6.95;;;3.67;;
17496;SDS011;62150;43.582;1.456;2022-08-07T06:02:20;6.82;;;3.70;;
17496;SDS011;62150;43.582;1.456;2022-08-07T06:04:54;7.10;;;3.70;;
17496;SDS011;62150;43.582;1.456;2022-08-07T06:07:24;6.50;;;3.58;;
17496;SDS011;62150;43.582;1.456;2022-08-07T06:09:53;7.10;;;3.83;;
17496;SDS011;62150;43.582;1.456;2022-08-07T06:12:21;6.90;;;3.70;;
17496;SDS011;62150;43.582;1.456;2022-08-07T06:14:49;7.20;;;4.00;;
17496;SDS011;62150;43.582;1.456;2022-08-07T06:17:17;6.95;;;3.55;;
17496;SDS011;62150;43.582;1.456;2022-08-07T06:19:46;6.78;;;3.70;;
17496;SDS011;62150;43.582;1.456;2022-08-07T06:22:16;6.18;;;3.60;;
17496;SDS011;62150;43.582;1.456;2022-08-07T06:24:45;7.68;;;3.65;;
17496;SDS011;62150;43.582;1.456;2022-08-07T06:27:18;6.90;;;3.80;;
17496;SDS011;62150;43.582;1.456;2022-08-07T06:29:47;7.15;;;3.72;;
17496;SDS011;62150;43.582;1.456;2022-08-07T06:32:15;5.70;;;3.30;;
17496;SDS011;62150;43.582;1.456;2022-08-07T06:34:42;5.18;;;3.38;;
17496;SDS011;62150;43.582;1.456;2022-08-07T06:37:10;6.88;;;3.47;;
17496;SDS011;62150;43.582;1.456;2022-08-07T06:39:39;4.90;;;3.28;;
17496;SDS011;62150;43.582;1.456;2022-08-07T06:42:07;5.85;;;3.28;;
17496;SDS011;62150;43.582;1.456;2022-08-07T06:44:40;6.22;;;3.30;;
17496;SDS011;62150;43.582;1.456;2022-08-07T06:47:10;6.15;;;3.40;;
17496;SDS011;62150;43.582;1.456;2022-08-07T06:49:38;5.68;;;3.25;;
17496;SDS011;62150;43.582;1.456;2022-08-07T06:52:08;5.35;;;3.20;;
17496;SDS011;62150;43.582;1.456;2022-08-07T06:54:38;6.30;;;3.30;;
17496;SDS011;62150;43.582;1.456;2022-08-07T06:57:08;5.70;;;3.38;;
17496;SDS011;62150;43.582;1.456;2022-08-07T06:59:38;6.55;;;3.10;;
17496;SDS011;62150;43.582;1.456;2022-08-07T07:02:08;7.07;;;3.20;;
17496;SDS011;62150;43.582;1.456;2022-08-07T07:04:47;5.80;;;3.40;;
17496;SDS011;62150;43.582;1.456;2022-08-07T07:07:16;7.72;;;3.40;;
17496;SDS011;62150;43.582;1.456;2022-08-07T07:09:45;5.97;;;3.33;;
17496;SDS011;62150;43.582;1.456;2022-08-07T07:12:17;6.72;;;3.40;;
17496;SDS011;62150;43.582;1.456;2022-08-07T07:14:59;6.45;;;3.10;;
17496;SDS011;62150;43.582;1.456;2022-08-07T07:17:32;6.47;;;3.17;;
17496;SDS011;62150;43.582;1.456;2022-08-07T07:20:05;6.25;;;3.25;;
17496;SDS011;62150;43.582;1.456;2022-08-07T07:22:35;6.47;;;3.30;;
17496;SDS011;62150;43.582;1.456;2022-08-07T07:25:06;5.30;;;3.20;;
17496;SDS011;62150;43.582;1.456;2022-08-07T07:27:39;7.43;;;3.65;;
17496;SDS011;62150;43.582;1.456;2022-08-07T07:30:10;6.22;;;3.40;;
17496;SDS011;62150;43.582;1.456;2022-08-07T07:32:39;5.45;;;3.30;;
17496;SDS011;62150;43.582;1.456;2022-08-07T07:35:09;6.38;;;3.58;;
17496;SDS011;62150;43.582;1.456;2022-08-07T07:37:40;6.28;;;3.50;;
17496;SDS011;62150;43.582;1.456;2022-08-07T07:40:13;6.82;;;3.60;;
17496;SDS011;62150;43.582;1.456;2022-08-07T07:42:45;6.70;;;3.42;;
17496;SDS011;62150;43.582;1.456;2022-08-07T07:45:15;6.50;;;3.60;;
17496;SDS011;62150;43.582;1.456;2022-08-07T07:47:46;5.45;;;3.10;;
17496;SDS011;62150;43.582;1.456;2022-08-07T07:50:17;5.25;;;3.30;;
17496;SDS011;62150;43.582;1.456;2022-08-07T07:52:47;5.25;;;3.30;;
17496;SDS011;62150;43.582;1.456;2022-08-07T07:55:18;4.90;;;3.15;;
17496;SDS011;62150;43.582;1.456;2022-08-07T07:57:48;6.13;;;3.28;;
17496;SDS011;62150;43.582;1.456;2022-08-07T08:00:17;5.47;;;3.20;;
17496;SDS011;62150;43.582;1.456;2022-08-07T08:02:45;5.80;;;3.40;;
17496;SDS011;62150;43.582;1.456;2022-08-07T08:05:15;5.95;;;3.20;;
17496;SDS011;62150;43.582;1.456;2022-08-07T08:07:43;9.68;;;4.03;;
17496;SDS011;62150;43.582;1.456;2022-08-07T08:10:13;5.80;;;3.30;;
17496;SDS011;62150;43.582;1.456;2022-08-07T08:12:43;6.15;;;3.47;;
17496;SDS011;62150;43.582;1.456;2022-08-07T08:15:12;6.25;;;3.30;;
17496;SDS011;62150;43.582;1.456;2022-08-07T08:17:42;5.90;;;3.38;;
17496;SDS011;62150;43.582;1.456;2022-08-07T08:20:11;5.43;;;3.45;;
17496;SDS011;62150;43.582;1.456;2022-08-07T08:22:41;6.88;;;3.50;;
17496;SDS011;62150;43.582;1.456;2022-08-07T08:25:30;6.63;;;3.55;;
17496;SDS011;62150;43.582;1.456;2022-08-07T08:28:19;6.47;;;3.72;;
17496;SDS011;62150;43.582;1.456;2022-08-07T08:30:51;5.20;;;3.28;;
17496;SDS011;62150;43.582;1.456;2022-08-07T08:33:23;6.95;;;3.40;;
17496;SDS011;62150;43.582;1.456;2022-08-07T08:35:54;6.40;;;3.72;;
17496;SDS011;62150;43.582;1.456;2022-08-07T08:38:24;7.50;;;3.47;;
17496;SDS011;62150;43.582;1.456;2022-08-07T08:40:57;5.68;;;3.55;;
17496;SDS011;62150;43.582;1.456;2022-08-07T08:43:32;5.65;;;3.40;;
17496;SDS011;62150;43.582;1.456;2022-08-07T08:46:06;6.72;;;3.50;;
17496;SDS011;62150;43.582;1.456;2022-08-07T08:48:41;6.40;;;3.50;;
17496;SDS011;62150;43.582;1.456;2022-08-07T08:51:17;5.90;;;3.60;;
17496;SDS011;62150;43.582;1.456;2022-08-07T08:53:51;6.78;;;3.55;;
17496;SDS011;62150;43.582;1.456;2022-08-07T08:56:23;8.77;;;3.70;;
17496;SDS011;62150;43.582;1.456;2022-08-07T08:58:58;6.05;;;3.40;;
17496;SDS011;62150;43.582;1.456;2022-08-07T09:01:33;5.45;;;3.25;;
17496;SDS011;62150;43.582;1.456;2022-08-07T09:04:10;6.18;;;3.30;;
17496;SDS011;62150;43.582;1.456;2022-08-07T09:06:47;7.53;;;3.65;;
17496;SDS011;62150;43.582;1.456;2022-08-07T09:09:28;4.72;;;3.30;;
17496;SDS011;62150;43.582;1.456;2022-08-07T09:12:15;5.03;;;3.30;;
17496;SDS011;62150;43.582;1.456;2022-08-07T09:14:56;6.10;;;3.38;;
17496;SDS011;62150;43.582;1.456;2022-08-07T09:17:33;4.68;;;3.30;;
17496;SDS011;62150;43.582;1.456;2022-08-07T09:20:11;5.38;;;3.50;;
17496;SDS011;62150;43.582;1.456;2022-08-07T09:22:49;6.28;;;3.30;;
17496;SDS011;62150;43.582;1.456;2022-08-07T09:25:24;6.30;;;3.50;;
17496;SDS011;62150;43.582;1.456;2022-08-07T09:28:00;7.25;;;3.78;;
17496;SDS011;62150;43.582;1.456;2022-08-07T09:30:39;5.72;;;3.30;;
17496;SDS011;62150;43.582;1.456;2022-08-07T09:33:15;5.70;;;3.50;;
17496;SDS011;62150;43.582;1.456;2022-08-07T09:35:54;6.22;;;3.38;;
17496;SDS011;62150;43.582;1.456;2022-08-07T09:38:28;6.50;;;3.53;;
17496;SDS011;62150;43.582;1.456;2022-08-07T09:41:05;5.93;;;3.60;;
17496;SDS011;62150;43.582;1.456;2022-08-07T09:43:44;5.15;;;3.40;;
17496;SDS011;62150;43.582;1.456;2022-08-07T09:46:24;6.28;;;3.63;;
17496;SDS011;62150;43.582;1.456;2022-08-07T09:49:03;5.15;;;3.15;;
17496;SDS011;62150;43.582;1.456;2022-08-07T09:51:56;5.20;;;3.28;;
17496;SDS011;62150;43.582;1.456;2022-08-07T09:54:33;4.95;;;3.08;;
17496;SDS011;62150;43.582;1.456;2022-08-07T09:57:10;5.32;;;3.20;;
17496;SDS011;62150;43.582;1.456;2022-08-07T10:00:00;5.47;;;3.17;;
17496;SDS011;62150;43.582;1.456;2022-08-07T10:05:42;5.10;;;3.20;;
17496;SDS011;62150;43.582;1.456;2022-08-07T10:08:46;5.50;;;3.25;;
17496;SDS011;62150;43.582;1.456;2022-08-07T10:11:34;6.28;;;3.53;;
17496;SDS011;62150;43.582;1.456;2022-08-07T10:14:23;5.53;;;3.20;;
17496;SDS011;62150;43.582;1.456;2022-08-07T10:17:08;5.57;;;3.30;;
17496;SDS011;62150;43.582;1.456;2022-08-07T10:20:01;5.47;;;3.30;;
17496;SDS011;62150;43.582;1.456;2022-08-07T10:22:42;5.20;;;3.28;;
17496;SDS011;62150;43.582;1.456;2022-08-07T10:25:32;6.03;;;3.40;;
17496;SDS011;62150;43.582;1.456;2022-08-07T10:28:11;5.68;;;3.40;;
17496;SDS011;62150;43.582;1.456;2022-08-07T10:30:57;4.35;;;3.30;;
17496;SDS011;62150;43.582;1.456;2022-08-07T10:36:34;6.20;;;3.20;;
17496;SDS011;62150;43.582;1.456;2022-08-07T10:39:17;5.78;;;3.10;;
17496;SDS011;62150;43.582;1.456;2022-08-07T10:42:09;6.55;;;3.38;;
17496;SDS011;62150;43.582;1.456;2022-08-07T10:44:51;7.00;;;3.47;;
17496;SDS011;62150;43.582;1.456;2022-08-07T10:47:27;6.70;;;3.42;;
17496;SDS011;62150;43.582;1.456;2022-08-07T10:50:05;5.30;;;3.15;;
17496;SDS011;62150;43.582;1.456;2022-08-07T10:52:44;6.00;;;3.10;;
17496;SDS011;62150;43.582;1.456;2022-08-07T10:55:19;5.10;;;3.20;;
17496;SDS011;62150;43.582;1.456;2022-08-07T10:57:55;4.65;;;3.05;;
17496;SDS011;62150;43.582;1.456;2022-08-07T11:00:45;6.38;;;3.25;;
17496;SDS011;62150;43.582;1.456;2022-08-07T11:03:22;6.57;;;3.17;;
17496;SDS011;62150;43.582;1.456;2022-08-07T11:06:01;6.10;;;3.40;;
17496;SDS011;62150;43.582;1.456;2022-08-07T11:08:38;6.15;;;3.20;;
17496;SDS011;62150;43.582;1.456;2022-08-07T11:11:13;6.55;;;3.40;;
17496;SDS011;62150;43.582;1.456;2022-08-07T11:13:45;6.13;;;3.35;;
17496;SDS011;62150;43.582;1.456;2022-08-07T11:16:18;6.68;;;3.50;;
17496;SDS011;62150;43.582;1.456;2022-08-07T11:18:50;4.75;;;3.22;;
17496;SDS011;62150;43.582;1.456;2022-08-07T11:21:26;4.55;;;3.03;;
17496;SDS011;62150;43.582;1.456;2022-08-07T11:24:03;5.60;;;3.30;;
17496;SDS011;62150;43.582;1.456;2022-08-07T11:26:38;5.70;;;3.33;;
17496;SDS011;62150;43.582;1.456;2022-08-07T11:29:13;6.40;;;3.10;;
17496;SDS011;62150;43.582;1.456;2022-08-07T11:31:59;5.85;;;3.38;;
17496;SDS011;62150;43.582;1.456;2022-08-07T11:34:35;6.97;;;3.60;;
17496;SDS011;62150;43.582;1.456;2022-08-07T11:37:12;6.57;;;3.38;;
17496;SDS011;62150;43.582;1.456;2022-08-07T11:40:04;5.93;;;3.20;;
17496;SDS011;62150;43.582;1.456;2022-08-07T11:42:41;6.30;;;3.35;;
17496;SDS011;62150;43.582;1.456;2022-08-07T11:45:23;4.75;;;2.95;;
17496;SDS011;62150;43.582;1.456;2022-08-07T11:48:11;4.60;;;3.15;;
17496;SDS011;62150;43.582;1.456;2022-08-07T11:50:56;6.13;;;3.20;;
17496;SDS011;62150;43.582;1.456;2022-08-07T11:53:36;4.75;;;3.00;;
17496;SDS011;62150;43.582;1.456;2022-08-07T11:56:18;4.75;;;3.20;;
17496;SDS011;62150;43.582;1.456;2022-08-07T11:58:59;6.00;;;3.35;;
17496;SDS011;62150;43.582;1.456;2022-08-07T12:01:44;5.22;;;3.30;;
17496;SDS011;62150;43.582;1.456;2022-08-07T12:04:26;4.03;;;3.00;;
17496;SDS011;62150;43.582;1.456;2022-08-07T12:07:12;4.30;;;3.13;;
17496;SDS011;62150;43.582;1.456;2022-08-07T12:09:47;6.38;;;3.00;;
17496;SDS011;62150;43.582;1.456;2022-08-07T12:12:22;5.10;;;2.78;;
17496;SDS011;62150;43.582;1.456;2022-08-07T12:14:54;6.07;;;2.97;;
17496;SDS011;62150;43.582;1.456;2022-08-07T12:17:29;3.90;;;2.70;;
17496;SDS011;62150;43.582;1.456;2022-08-07T12:20:05;5.00;;;2.83;;
17496;SDS011;62150;43.582;1.456;2022-08-07T12:22:39;4.55;;;2.90;;
17496;SDS011;62150;43.582;1.456;2022-08-07T12:25:13;4.82;;;2.80;;
17496;SDS011;62150;43.582;1.456;2022-08-07T12:28:08;6.53;;;2.90;;
17496;SDS011;62150;43.582;1.456;2022-08-07T12:30:41;3.58;;;2.70;;
17496;SDS011;62150;43.582;1.456;2022-08-07T12:33:14;4.28;;;2.85;;
17496;SDS011;62150;43.582;1.456;2022-08-07T12:35:47;5.03;;;2.70;;
17496;SDS011;62150;43.582;1.456;2022-08-07T12:38:17;4.47;;;2.92;;
17496;SDS011;62150;43.582;1.456;2022-08-07T12:40:47;5.50;;;2.80;;
17496;SDS011;62150;43.582;1.456;2022-08-07T12:43:19;5.22;;;3.00;;
17496;SDS011;62150;43.582;1.456;2022-08-07T12:45:51;4.18;;;2.83;;
17496;SDS011;62150;43.582;1.456;2022-08-07T12:48:26;5.07;;;2.80;;
17496;SDS011;62150;43.582;1.456;2022-08-07T12:51:08;3.88;;;2.90;;
17496;SDS011;62150;43.582;1.456;2022-08-07T12:53:40;3.78;;;2.85;;
17496;SDS011;62150;43.582;1.456;2022-08-07T12:56:11;5.57;;;2.90;;
17496;SDS011;62150;43.582;1.456;2022-08-07T12:58:52;4.97;;;2.63;;
17496;SDS011;62150;43.582;1.456;2022-08-07T13:01:27;4.75;;;2.92;;
17496;SDS011;62150;43.582;1.456;2022-08-07T13:04:08;5.00;;;2.95;;
17496;SDS011;62150;43.582;1.456;2022-08-07T13:10:12;5.10;;;2.92;;
17496;SDS011;62150;43.582;1.456;2022-08-07T13:15:39;4.75;;;2.90;;
17496;SDS011;62150;43.582;1.456;2022-08-07T13:18:17;5.43;;;2.95;;
17496;SDS011;62150;43.582;1.456;2022-08-07T13:20:56;4.10;;;2.60;;
17496;SDS011;62150;43.582;1.456;2022-08-07T13:23:32;5.25;;;2.90;;
17496;SDS011;62150;43.582;1.456;2022-08-07T13:26:10;4.35;;;2.80;;
17496;SDS011;62150;43.582;1.456;2022-08-07T13:28:43;4.50;;;2.92;;
17496;SDS011;62150;43.582;1.456;2022-08-07T13:31:18;5.22;;;3.20;;
17496;SDS011;62150;43.582;1.456;2022-08-07T13:36:40;5.60;;;2.92;;
17496;SDS011;62150;43.582;1.456;2022-08-07T13:39:14;3.60;;;2.45;;
17496;SDS011;62150;43.582;1.456;2022-08-07T13:41:51;5.53;;;2.63;;
17496;SDS011;62150;43.582;1.456;2022-08-07T13:44:21;4.03;;;2.90;;
17496;SDS011;62150;43.582;1.456;2022-08-07T13:46:54;4.95;;;2.80;;
17496;SDS011;62150;43.582;1.456;2022-08-07T13:49:25;4.53;;;2.90;;
17496;SDS011;62150;43.582;1.456;2022-08-07T13:52:00;4.20;;;2.67;;
17496;SDS011;62150;43.582;1.456;2022-08-07T13:54:30;4.40;;;2.80;;
17496;SDS011;62150;43.582;1.456;2022-08-07T13:57:01;4.88;;;2.95;;
17496;SDS011;62150;43.582;1.456;2022-08-07T13:59:35;5.15;;;2.70;;
17496;SDS011;62150;43.582;1.456;2022-08-07T14:02:06;4.47;;;2.92;;
17496;SDS011;62150;43.582;1.456;2022-08-07T14:04:43;4.22;;;2.70;;
17496;SDS011;62150;43.582;1.456;2022-08-07T14:07:14;5.25;;;3.00;;
17496;SDS011;62150;43.582;1.456;2022-08-07T14:09:45;4.68;;;2.88;;
17496;SDS011;62150;43.582;1.456;2022-08-07T14:12:18;3.90;;;2.72;;
17496;SDS011;62150;43.582;1.456;2022-08-07T14:14:53;5.53;;;2.67;;
17496;SDS011;62150;43.582;1.456;2022-08-07T14:17:27;3.75;;;2.65;;
17496;SDS011;62150;43.582;1.456;2022-08-07T14:19:58;6.18;;;2.83;;
17496;SDS011;62150;43.582;1.456;2022-08-07T14:22:30;5.53;;;2.92;;
17496;SDS011;62150;43.582;1.456;2022-08-07T14:25:00;4.57;;;2.92;;
17496;SDS011;62150;43.582;1.456;2022-08-07T14:27:34;5.00;;;2.90;;
17496;SDS011;62150;43.582;1.456;2022-08-07T14:30:06;4.03;;;2.88;;
17496;SDS011;62150;43.582;1.456;2022-08-07T14:32:40;4.90;;;2.67;;
17496;SDS011;62150;43.582;1.456;2022-08-07T14:35:15;4.82;;;2.72;;
17496;SDS011;62150;43.582;1.456;2022-08-07T14:37:46;4.95;;;2.80;;
17496;SDS011;62150;43.582;1.456;2022-08-07T14:40:17;5.60;;;2.75;;
17496;SDS011;62150;43.582;1.456;2022-08-07T14:42:52;3.50;;;2.67;;
17496;SDS011;62150;43.582;1.456;2022-08-07T14:45:25;4.07;;;2.72;;
17496;SDS011;62150;43.582;1.456;2022-08-07T14:47:57;4.65;;;2.70;;
17496;SDS011;62150;43.582;1.456;2022-08-07T14:50:27;4.97;;;2.50;;
17496;SDS011;62150;43.582;1.456;2022-08-07T14:52:55;4.78;;;2.53;;
17496;SDS011;62150;43.582;1.456;2022-08-07T14:55:27;4.07;;;2.60;;
17496;SDS011;62150;43.582;1.456;2022-08-07T14:57:59;4.00;;;2.83;;
17496;SDS011;62150;43.582;1.456;2022-08-07T15:00:29;5.13;;;2.90;;
17496;SDS011;62150;43.582;1.456;2022-08-07T15:03:04;4.20;;;2.60;;
17496;SDS011;62150;43.582;1.456;2022-08-07T15:05:34;3.40;;;2.55;;
17496;SDS011;62150;43.582;1.456;2022-08-07T15:08:05;4.28;;;2.80;;
17496;SDS011;62150;43.582;1.456;2022-08-07T15:10:34;4.82;;;2.80;;
17496;SDS011;62150;43.582;1.456;2022-08-07T15:13:07;4.60;;;2.80;;
17496;SDS011;62150;43.582;1.456;2022-08-07T15:15:42;5.00;;;2.70;;
17496;SDS011;62150;43.582;1.456;2022-08-07T15:18:14;4.35;;;2.70;;
17496;SDS011;62150;43.582;1.456;2022-08-07T15:20:46;4.07;;;2.75;;
17496;SDS011;62150;43.582;1.456;2022-08-07T15:23:18;4.57;;;2.80;;
17496;SDS011;62150;43.582;1.456;2022-08-07T15:25:52;4.18;;;2.60;;
17496;SDS011;62150;43.582;1.456;2022-08-07T15:28:23;7.13;;;2.60;;
17496;SDS011;62150;43.582;1.456;2022-08-07T15:30:52;4.43;;;2.60;;
17496;SDS011;62150;43.582;1.456;2022-08-07T15:33:25;4.35;;;2.60;;
17496;SDS011;62150;43.582;1.456;2022-08-07T15:35:54;4.13;;;2.55;;
17496;SDS011;62150;43.582;1.456;2022-08-07T15:38:24;3.83;;;2.55;;
17496;SDS011;62150;43.582;1.456;2022-08-07T15:40:53;4.30;;;2.67;;
17496;SDS011;62150;43.582;1.456;2022-08-07T15:43:22;3.88;;;2.60;;
17496;SDS011;62150;43.582;1.456;2022-08-07T15:45:52;4.88;;;2.60;;
17496;SDS011;62150;43.582;1.456;2022-08-07T15:48:24;4.43;;;2.65;;
17496;SDS011;62150;43.582;1.456;2022-08-07T15:50:57;4.72;;;2.65;;
17496;SDS011;62150;43.582;1.456;2022-08-07T15:53:33;3.22;;;2.50;;
17496;SDS011;62150;43.582;1.456;2022-08-07T15:56:04;4.22;;;2.80;;
17496;SDS011;62150;43.582;1.456;2022-08-07T15:58:35;3.90;;;2.60;;
17496;SDS011;62150;43.582;1.456;2022-08-07T16:01:05;3.58;;;2.50;;
17496;SDS011;62150;43.582;1.456;2022-08-07T16:03:42;3.72;;;2.53;;
17496;SDS011;62150;43.582;1.456;2022-08-07T16:06:13;4.38;;;2.72;;
17496;SDS011;62150;43.582;1.456;2022-08-07T16:08:49;3.58;;;2.60;;
17496;SDS011;62150;43.582;1.456;2022-08-07T16:11:24;4.38;;;2.55;;
17496;SDS011;62150;43.582;1.456;2022-08-07T16:14:08;4.18;;;2.53;;
17496;SDS011;62150;43.582;1.456;2022-08-07T16:16:48;4.45;;;2.55;;
17496;SDS011;62150;43.582;1.456;2022-08-07T16:19:55;4.47;;;2.50;;
17496;SDS011;62150;43.582;1.456;2022-08-07T16:22:36;3.67;;;2.45;;
17496;SDS011;62150;43.582;1.456;2022-08-07T16:25:16;5.38;;;2.60;;
17496;SDS011;62150;43.582;1.456;2022-08-07T16:28:10;4.22;;;2.40;;
17496;SDS011;62150;43.582;1.456;2022-08-07T16:30:49;3.58;;;2.47;;
17496;SDS011;62150;43.582;1.456;2022-08-07T16:33:23;4.28;;;2.55;;
17496;SDS011;62150;43.582;1.456;2022-08-07T16:36:06;4.15;;;2.70;;
17496;SDS011;62150;43.582;1.456;2022-08-07T16:38:45;3.47;;;2.30;;
17496;SDS011;62150;43.582;1.456;2022-08-07T16:41:34;4.35;;;2.50;;
17496;SDS011;62150;43.582;1.456;2022-08-07T16:44:21;3.25;;;2.40;;
17496;SDS011;62150;43.582;1.456;2022-08-07T16:50:23;3.67;;;2.50;;
17496;SDS011;62150;43.582;1.456;2022-08-07T16:53:15;3.75;;;2.50;;
17496;SDS011;62150;43.582;1.456;2022-08-07T16:56:02;3.70;;;2.50;;
17496;SDS011;62150;43.582;1.456;2022-08-07T16:58:43;2.97;;;2.33;;
17496;SDS011;62150;43.582;1.456;2022-08-07T17:01:26;4.47;;;2.60;;
17496;SDS011;62150;43.582;1.456;2022-08-07T17:04:03;4.75;;;2.40;;
17496;SDS011;62150;43.582;1.456;2022-08-07T17:06:40;4.57;;;2.30;;
17496;SDS011;62150;43.582;1.456;2022-08-07T17:09:16;4.25;;;2.40;;
17496;SDS011;62150;43.582;1.456;2022-08-07T17:11:52;3.55;;;2.35;;
17496;SDS011;62150;43.582;1.456;2022-08-07T17:14:32;4.53;;;2.28;;
17496;SDS011;62150;43.582;1.456;2022-08-07T17:17:19;3.85;;;2.42;;
17496;SDS011;62150;43.582;1.456;2022-08-07T17:20:02;4.57;;;2.60;;
17496;SDS011;62150;43.582;1.456;2022-08-07T17:22:35;3.85;;;2.40;;
17496;SDS011;62150;43.582;1.456;2022-08-07T17:25:13;3.63;;;2.40;;
17496;SDS011;62150;43.582;1.456;2022-08-07T17:27:48;3.92;;;2.47;;
17496;SDS011;62150;43.582;1.456;2022-08-07T17:30:22;3.95;;;2.35;;
17496;SDS011;62150;43.582;1.456;2022-08-07T17:33:00;4.15;;;2.40;;
17496;SDS011;62150;43.582;1.456;2022-08-07T17:35:37;3.90;;;2.60;;
17496;SDS011;62150;43.582;1.456;2022-08-07T17:38:22;3.85;;;2.50;;
17496;SDS011;62150;43.582;1.456;2022-08-07T17:41:00;3.60;;;2.30;;
17496;SDS011;62150;43.582;1.456;2022-08-07T17:43:33;3.65;;;2.30;;
17496;SDS011;62150;43.582;1.456;2022-08-07T17:46:08;3.60;;;2.33;;
17496;SDS011;62150;43.582;1.456;2022-08-07T17:48:44;3.25;;;2.20;;
17496;SDS011;62150;43.582;1.456;2022-08-07T17:51:26;2.90;;;2.30;;
17496;SDS011;62150;43.582;1.456;2022-08-07T17:54:02;3.65;;;2.28;;
17496;SDS011;62150;43.582;1.456;2022-08-07T17:56:41;3.50;;;2.10;;
17496;SDS011;62150;43.582;1.456;2022-08-07T17:59:17;3.65;;;2.40;;
17496;SDS011;62150;43.582;1.456;2022-08-07T18:01:50;3.42;;;2.20;;
17496;SDS011;62150;43.582;1.456;2022-08-07T18:04:27;4.03;;;2.30;;
17496;SDS011;62150;43.582;1.456;2022-08-07T18:07:00;3.72;;;2.50;;
17496;SDS011;62150;43.582;1.456;2022-08-07T18:09:41;3.47;;;2.13;;
17496;SDS011;62150;43.582;1.456;2022-08-07T18:12:15;4.20;;;2.25;;
17496;SDS011;62150;43.582;1.456;2022-08-07T18:14:49;3.30;;;2.30;;
17496;SDS011;62150;43.582;1.456;2022-08-07T18:17:27;2.72;;;2.20;;
17496;SDS011;62150;43.582;1.456;2022-08-07T18:20:04;4.10;;;2.33;;
17496;SDS011;62150;43.582;1.456;2022-08-07T18:22:40;2.95;;;2.13;;
17496;SDS011;62150;43.582;1.456;2022-08-07T18:25:21;3.95;;;2.40;;
17496;SDS011;62150;43.582;1.456;2022-08-07T18:28:07;5.57;;;2.30;;
17496;SDS011;62150;43.582;1.456;2022-08-07T18:30:45;4.28;;;2.42;;
17496;SDS011;62150;43.582;1.456;2022-08-07T18:33:43;4.38;;;2.30;;
17496;SDS011;62150;43.582;1.456;2022-08-07T18:36:35;4.70;;;2.40;;
17496;SDS011;62150;43.582;1.456;2022-08-07T18:39:10;3.88;;;2.30;;
17496;SDS011;62150;43.582;1.456;2022-08-07T18:41:50;3.67;;;2.38;;
17496;SDS011;62150;43.582;1.456;2022-08-07T18:44:41;3.78;;;2.20;;
17496;SDS011;62150;43.582;1.456;2022-08-07T18:47:16;3.20;;;2.13;;
17496;SDS011;62150;43.582;1.456;2022-08-07T18:49:59;3.03;;;2.10;;
17496;SDS011;62150;43.582;1.456;2022-08-07T18:52:44;5.13;;;2.70;;
17496;SDS011;62150;43.582;1.456;2022-08-07T18:55:23;6.00;;;3.00;;
17496;SDS011;62150;43.582;1.456;2022-08-07T18:58:08;4.95;;;2.83;;
17496;SDS011;62150;43.582;1.456;2022-08-07T19:00:50;5.15;;;2.97;;
17496;SDS011;62150;43.582;1.456;2022-08-07T19:03:27;4.88;;;2.80;;
17496;SDS011;62150;43.582;1.456;2022-08-07T19:06:02;5.50;;;3.10;;
17496;SDS011;62150;43.582;1.456;2022-08-07T19:08:39;7.28;;;3.05;;
17496;SDS011;62150;43.582;1.456;2022-08-07T19:11:16;5.43;;;2.83;;
17496;SDS011;62150;43.582;1.456;2022-08-07T19:13:51;5.25;;;3.00;;
17496;SDS011;62150;43.582;1.456;2022-08-07T19:16:29;5.88;;;3.00;;
17496;SDS011;62150;43.582;1.456;2022-08-07T19:19:01;4.75;;;2.83;;
17496;SDS011;62150;43.582;1.456;2022-08-07T19:21:37;5.38;;;3.00;;
17496;SDS011;62150;43.582;1.456;2022-08-07T19:24:09;7.40;;;3.17;;
17496;SDS011;62150;43.582;1.456;2022-08-07T19:26:46;4.88;;;3.10;;
17496;SDS011;62150;43.582;1.456;2022-08-07T19:29:15;5.95;;;3.30;;
17496;SDS011;62150;43.582;1.456;2022-08-07T19:31:47;5.88;;;3.08;;
17496;SDS011;62150;43.582;1.456;2022-08-07T19:34:18;6.15;;;3.08;;
17496;SDS011;62150;43.582;1.456;2022-08-07T19:36:50;5.72;;;2.60;;
17496;SDS011;62150;43.582;1.456;2022-08-07T19:39:19;5.70;;;2.92;;
17496;SDS011;62150;43.582;1.456;2022-08-07T19:41:51;5.45;;;2.60;;
17496;SDS011;62150;43.582;1.456;2022-08-07T19:44:23;4.40;;;2.60;;
17496;SDS011;62150;43.582;1.456;2022-08-07T19:47:00;4.88;;;2.50;;
17496;SDS011;62150;43.582;1.456;2022-08-07T19:49:32;5.47;;;2.60;;
17496;SDS011;62150;43.582;1.456;2022-08-07T19:52:05;4.45;;;2.60;;
17496;SDS011;62150;43.582;1.456;2022-08-07T19:54:39;5.03;;;2.60;;
17496;SDS011;62150;43.582;1.456;2022-08-07T19:57:08;4.35;;;2.30;;
17496;SDS011;62150;43.582;1.456;2022-08-07T19:59:39;4.47;;;2.40;;
17496;SDS011;62150;43.582;1.456;2022-08-07T20:02:13;5.03;;;2.60;;
17496;SDS011;62150;43.582;1.456;2022-08-07T20:04:49;5.57;;;2.50;;
17496;SDS011;62150;43.582;1.456;2022-08-07T20:07:22;3.92;;;2.40;;
17496;SDS011;62150;43.582;1.456;2022-08-07T20:09:52;4.22;;;2.50;;
17496;SDS011;62150;43.582;1.456;2022-08-07T20:12:22;4.38;;;2.33;;
17496;SDS011;62150;43.582;1.456;2022-08-07T20:14:54;4.57;;;2.40;;
17496;SDS011;62150;43.582;1.456;2022-08-07T20:17:25;4.15;;;2.30;;
17496;SDS011;62150;43.582;1.456;2022-08-07T20:19:55;4.35;;;2.40;;
17496;SDS011;62150;43.582;1.456;2022-08-07T20:22:25;3.95;;;2.50;;
17496;SDS011;62150;43.582;1.456;2022-08-07T20:24:55;5.30;;;2.65;;
17496;SDS011;62150;43.582;1.456;2022-08-07T20:27:27;3.65;;;2.30;;
17496;SDS011;62150;43.582;1.456;2022-08-07T20:29:57;4.75;;;2.40;;
17496;SDS011;62150;43.582;1.456;2022-08-07T20:32:29;3.92;;;2.40;;
17496;SDS011;62150;43.582;1.456;2022-08-07T20:34:59;4.35;;;2.60;;
17496;SDS011;62150;43.582;1.456;2022-08-07T20:37:30;3.80;;;2.40;;
17496;SDS011;62150;43.582;1.456;2022-08-07T20:40:02;3.90;;;2.53;;
17496;SDS011;62150;43.582;1.456;2022-08-07T20:42:32;5.15;;;2.53;;
17496;SDS011;62150;43.582;1.456;2022-08-07T20:45:04;4.88;;;2.50;;
17496;SDS011;62150;43.582;1.456;2022-08-07T20:47:35;5.25;;;2.47;;
17496;SDS011;62150;43.582;1.456;2022-08-07T20:50:05;4.38;;;2.40;;
17496;SDS011;62150;43.582;1.456;2022-08-07T20:52:34;5.40;;;2.50;;
17496;SDS011;62150;43.582;1.456;2022-08-07T20:55:02;4.05;;;2.45;;
17496;SDS011;62150;43.582;1.456;2022-08-07T20:57:33;3.83;;;2.25;;
